createdAt,value
2023-04-29T00:00:30.080Z,5.80
2023-04-29T00:01:30.085Z,5.50
2023-04-29T00:02:31.982Z,5.50
2023-04-29T00:03:30.242Z,5.60
2023-04-29T00:04:30.216Z,5.30
2023-04-29T00:05:30.264Z,5.70
2023-04-29T00:06:30.136Z,5.20
2023-04-29T00:07:29.985Z,5.30
2023-04-29T00:08:30.013Z,5.60
2023-04-29T00:09:29.970Z,5.10
2023-04-29T00:10:29.949Z,5.30
2023-04-29T00:11:29.951Z,5.70
2023-04-29T00:12:29.920Z,5.80
2023-04-29T00:13:29.906Z,5.30
2023-04-29T00:14:29.896Z,5.40
2023-04-29T00:15:29.880Z,5.80
2023-04-29T00:16:29.921Z,5.90
2023-04-29T00:17:29.898Z,5.90
2023-04-29T00:18:29.836Z,6.30
2023-04-29T00:19:29.837Z,6.30
2023-04-29T00:20:29.811Z,6.00
2023-04-29T00:21:29.825Z,6.00
2023-04-29T00:22:29.785Z,5.50
2023-04-29T00:23:29.769Z,5.20
2023-04-29T00:24:29.782Z,5.60
2023-04-29T00:25:29.749Z,5.70
2023-04-29T00:26:29.731Z,5.70
2023-04-29T00:27:29.738Z,5.50
2023-04-29T00:28:29.715Z,5.70
2023-04-29T00:29:29.696Z,5.50
2023-04-29T00:30:29.676Z,5.70
2023-04-29T00:31:29.794Z,5.30
2023-04-29T00:32:29.691Z,5.60
2023-04-29T00:33:29.639Z,5.50
2023-04-29T00:34:29.623Z,5.60
2023-04-29T00:35:29.613Z,5.60
2023-04-29T00:36:29.597Z,5.20
2023-04-29T00:37:29.604Z,5.60
2023-04-29T00:38:29.582Z,6.10
2023-04-29T00:39:29.558Z,5.70
2023-04-29T00:40:29.575Z,5.60
2023-04-29T00:41:29.540Z,5.60
2023-04-29T00:42:29.536Z,5.70
2023-04-29T00:43:29.507Z,5.60
2023-04-29T00:44:29.493Z,5.80
2023-04-29T00:45:29.484Z,5.60
2023-04-29T00:46:29.501Z,5.80
2023-04-29T00:47:29.476Z,5.40
2023-04-29T00:48:29.443Z,5.50
2023-04-29T00:49:29.425Z,5.80
2023-04-29T00:50:29.417Z,5.80
2023-04-29T00:51:29.407Z,5.80
2023-04-29T00:52:29.405Z,5.90
2023-04-29T00:53:29.373Z,5.90
2023-04-29T00:54:29.356Z,5.90
2023-04-29T00:55:29.346Z,5.70
2023-04-29T00:56:29.351Z,5.60
2023-04-29T00:57:29.340Z,5.90
2023-04-29T00:58:29.305Z,6.00
2023-04-29T00:59:29.290Z,6.10
2023-04-29T01:00:29.275Z,5.70
2023-04-29T01:01:29.294Z,5.60
2023-04-29T01:02:29.317Z,5.70
2023-04-29T01:03:29.475Z,5.60
2023-04-29T01:04:29.238Z,5.60
2023-04-29T01:05:29.210Z,5.90
2023-04-29T01:06:29.201Z,5.80
2023-04-29T01:07:29.199Z,5.70
2023-04-29T01:08:29.194Z,6.70
2023-04-29T01:09:29.168Z,6.30
2023-04-29T01:10:29.172Z,6.30
2023-04-29T01:11:29.129Z,5.90
2023-04-29T01:12:29.153Z,6.10
2023-04-29T01:13:29.106Z,5.90
2023-04-29T01:14:29.098Z,6.10
2023-04-29T01:15:29.079Z,6.00
2023-04-29T01:16:29.120Z,5.90
2023-04-29T01:17:29.112Z,5.80
2023-04-29T01:18:29.043Z,6.20
2023-04-29T01:19:29.022Z,5.90
2023-04-29T01:20:29.015Z,6.30
2023-04-29T01:21:28.994Z,6.10
2023-04-29T01:22:29.000Z,6.10
2023-04-29T01:23:28.985Z,6.40
2023-04-29T01:24:28.958Z,6.40
2023-04-29T01:25:28.942Z,6.30
2023-04-29T01:26:28.924Z,6.40
2023-04-29T01:27:28.931Z,6.40
2023-04-29T01:28:28.921Z,6.10
2023-04-29T01:29:28.889Z,6.40
2023-04-29T01:30:28.875Z,6.10
2023-04-29T01:31:28.905Z,5.90
2023-04-29T01:32:28.864Z,5.80
2023-04-29T01:33:28.849Z,6.20
2023-04-29T01:34:28.834Z,6.00
2023-04-29T01:35:28.823Z,5.80
2023-04-29T01:36:28.815Z,6.20
2023-04-29T01:37:28.788Z,6.00
2023-04-29T01:38:28.785Z,5.70
2023-04-29T01:39:28.759Z,5.80
2023-04-29T01:40:28.749Z,6.10
2023-04-29T01:41:28.735Z,5.70
2023-04-29T01:42:28.715Z,5.70
2023-04-29T01:43:28.718Z,5.90
2023-04-29T01:44:28.712Z,5.80
2023-04-29T01:45:28.683Z,5.60
2023-04-29T01:46:28.728Z,6.00
2023-04-29T01:47:28.668Z,5.90
2023-04-29T01:48:28.660Z,6.00
2023-04-29T01:49:28.715Z,5.60
2023-04-29T01:50:28.614Z,5.70
2023-04-29T01:51:28.611Z,5.40
2023-04-29T01:52:28.588Z,5.40
2023-04-29T01:53:28.594Z,5.60
2023-04-29T01:54:28.566Z,5.60
2023-04-29T01:55:28.550Z,5.40
2023-04-29T01:56:28.538Z,5.40
2023-04-29T01:57:28.525Z,5.20
2023-04-29T01:58:28.529Z,5.20
2023-04-29T01:59:31.388Z,5.00
2023-04-29T02:00:28.536Z,5.60
2023-04-29T02:01:28.470Z,5.60
2023-04-29T02:02:28.564Z,5.30
2023-04-29T02:03:28.514Z,5.30
2023-04-29T02:04:28.477Z,5.40
2023-04-29T02:05:28.418Z,5.30
2023-04-29T02:06:28.405Z,5.00
2023-04-29T02:07:28.391Z,5.10
2023-04-29T02:08:28.390Z,5.10
2023-04-29T02:09:28.377Z,4.90
2023-04-29T02:10:28.350Z,4.80
2023-04-29T02:11:28.336Z,5.00
2023-04-29T02:12:28.323Z,5.40
2023-04-29T02:13:28.332Z,5.30
2023-04-29T02:14:28.302Z,5.50
2023-04-29T02:15:28.295Z,5.70
2023-04-29T02:16:28.312Z,5.60
2023-04-29T02:17:28.276Z,5.40
2023-04-29T02:18:28.260Z,5.40
2023-04-29T02:19:28.233Z,5.60
2023-04-29T02:20:28.218Z,5.70
2023-04-29T02:21:28.208Z,5.80
2023-04-29T02:22:28.196Z,6.00
2023-04-29T02:23:28.204Z,5.50
2023-04-29T02:24:28.166Z,5.80
2023-04-29T02:25:28.154Z,5.20
2023-04-29T02:26:28.139Z,5.40
2023-04-29T02:27:28.128Z,5.50
2023-04-29T02:28:28.134Z,5.60
2023-04-29T02:29:28.100Z,5.50
2023-04-29T02:30:28.084Z,5.60
2023-04-29T02:31:28.093Z,5.20
2023-04-29T02:32:28.136Z,5.20
2023-04-29T02:33:28.062Z,4.90
2023-04-29T02:34:28.030Z,4.80
2023-04-29T02:35:28.027Z,5.20
2023-04-29T02:36:28.004Z,5.30
2023-04-29T02:37:27.992Z,5.30
2023-04-29T02:38:28.006Z,5.60
2023-04-29T02:39:27.964Z,5.60
2023-04-29T02:40:27.953Z,5.80
2023-04-29T02:41:27.939Z,5.60
2023-04-29T02:42:27.928Z,5.50
2023-04-29T02:43:27.914Z,5.30
2023-04-29T02:44:27.912Z,5.50
2023-04-29T02:45:27.894Z,5.60
2023-04-29T02:46:27.920Z,5.50
2023-04-29T02:47:27.862Z,5.40
2023-04-29T02:48:27.868Z,5.70
2023-04-29T02:49:27.875Z,7.30
2023-04-29T02:50:27.823Z,7.20
2023-04-29T02:51:27.803Z,7.20
2023-04-29T02:52:27.791Z,6.70
2023-04-29T02:53:27.788Z,6.40
2023-04-29T02:54:27.783Z,6.30
2023-04-29T02:55:27.758Z,5.70
2023-04-29T02:56:27.739Z,5.70
2023-04-29T02:57:27.726Z,5.80
2023-04-29T02:58:27.710Z,5.50
2023-04-29T02:59:27.709Z,5.20
2023-04-29T03:00:27.684Z,5.50
2023-04-29T03:01:27.720Z,5.10
2023-04-29T03:02:27.777Z,5.40
2023-04-29T03:03:27.812Z,5.20
2023-04-29T03:04:27.791Z,4.60
2023-04-29T03:05:27.621Z,4.90
2023-04-29T03:06:27.612Z,4.70
2023-04-29T03:07:27.595Z,4.70
2023-04-29T03:08:27.577Z,4.90
2023-04-29T03:09:27.583Z,4.50
2023-04-29T03:10:27.555Z,4.70
2023-04-29T03:11:27.539Z,4.80
2023-04-29T03:12:27.531Z,4.80
2023-04-29T03:13:27.535Z,4.80
2023-04-29T03:14:27.522Z,4.80
2023-04-29T03:15:27.487Z,4.80
2023-04-29T03:16:27.513Z,4.80
2023-04-29T03:17:27.471Z,4.80
2023-04-29T03:18:27.453Z,4.70
2023-04-29T03:19:27.444Z,4.90
2023-04-29T03:20:27.648Z,4.90
2023-04-29T03:21:27.401Z,4.60
2023-04-29T03:22:27.405Z,4.40
2023-04-29T03:23:27.378Z,4.40
2023-04-29T03:24:27.374Z,4.40
2023-04-29T03:25:27.378Z,4.60
2023-04-29T03:26:27.331Z,4.60
2023-04-29T03:27:27.324Z,4.40
2023-04-29T03:28:27.320Z,4.70
2023-04-29T03:29:27.305Z,4.60
2023-04-29T03:30:27.281Z,4.60
2023-04-29T03:31:27.379Z,4.90
2023-04-29T03:32:27.306Z,4.30
2023-04-29T03:33:27.257Z,4.30
2023-04-29T03:34:27.262Z,4.40
2023-04-29T03:35:27.217Z,4.50
2023-04-29T03:36:27.220Z,4.50
2023-04-29T03:37:27.194Z,4.20
2023-04-29T03:38:27.181Z,4.40
2023-04-29T03:39:27.179Z,4.30
2023-04-29T03:40:27.161Z,4.40
2023-04-29T03:41:27.131Z,4.40
2023-04-29T03:42:27.125Z,4.20
2023-04-29T03:43:27.107Z,4.30
2023-04-29T03:44:27.131Z,4.40
2023-04-29T03:45:27.082Z,4.70
2023-04-29T03:46:27.090Z,4.80
2023-04-29T03:47:27.081Z,4.40
2023-04-29T03:48:27.052Z,4.40
2023-04-29T03:49:27.034Z,4.30
2023-04-29T03:50:27.011Z,4.10
2023-04-29T03:51:27.040Z,4.20
2023-04-29T03:52:27.003Z,4.30
2023-04-29T03:53:26.977Z,4.70
2023-04-29T03:54:26.990Z,4.20
2023-04-29T03:55:26.945Z,4.60
2023-04-29T03:56:26.930Z,4.60
2023-04-29T03:57:26.917Z,4.50
2023-04-29T03:58:26.916Z,5.20
2023-04-29T03:59:26.893Z,5.30
2023-04-29T04:00:26.981Z,5.90
2023-04-29T04:01:26.866Z,5.90
2023-04-29T04:02:27.054Z,5.40
2023-04-29T04:03:26.954Z,5.50
2023-04-29T04:04:27.086Z,6.20
2023-04-29T04:05:26.925Z,7.10
2023-04-29T04:06:26.953Z,7.60
2023-04-29T04:07:26.844Z,7.40
2023-04-29T04:08:26.851Z,7.10
2023-04-29T04:09:26.785Z,6.10
2023-04-29T04:10:26.851Z,6.90
2023-04-29T04:11:26.816Z,6.20
2023-04-29T04:12:26.709Z,6.40
2023-04-29T04:13:26.695Z,6.40
2023-04-29T04:14:26.687Z,6.50
2023-04-29T04:15:26.687Z,6.80
2023-04-29T04:16:26.707Z,6.80
2023-04-29T04:17:26.641Z,6.80
2023-04-29T04:18:26.636Z,6.70
2023-04-29T04:19:26.612Z,6.60
2023-04-29T04:20:26.615Z,6.70
2023-04-29T04:21:26.587Z,6.60
2023-04-29T04:22:26.573Z,6.30
2023-04-29T04:23:26.606Z,6.40
2023-04-29T04:24:26.573Z,6.20
2023-04-29T04:25:26.554Z,6.10
2023-04-29T04:26:26.535Z,6.10
2023-04-29T04:27:26.510Z,5.80
2023-04-29T04:28:26.495Z,6.30
2023-04-29T04:29:26.480Z,6.70
2023-04-29T04:30:26.477Z,6.50
2023-04-29T04:31:26.478Z,6.90
2023-04-29T04:32:26.499Z,6.40
2023-04-29T04:33:26.428Z,6.40
2023-04-29T04:34:26.428Z,7.20
2023-04-29T04:35:26.415Z,7.10
2023-04-29T04:36:26.389Z,7.20
2023-04-29T04:37:26.378Z,7.80
2023-04-29T04:38:26.379Z,7.40
2023-04-29T04:39:26.361Z,8.20
2023-04-29T04:40:26.378Z,8.30
2023-04-29T04:41:26.352Z,8.10
2023-04-29T04:42:26.315Z,8.20
2023-04-29T04:43:26.291Z,8.30
2023-04-29T04:44:26.277Z,8.80
2023-04-29T04:45:26.319Z,8.90
2023-04-29T04:46:26.255Z,8.80
2023-04-29T04:47:26.271Z,9.00
2023-04-29T04:48:26.224Z,9.40
2023-04-29T04:49:26.214Z,9.50
2023-04-29T04:50:26.215Z,9.30
2023-04-29T04:51:26.182Z,9.70
2023-04-29T04:52:26.171Z,9.80
2023-04-29T04:53:26.161Z,9.80
2023-04-29T04:54:26.145Z,9.60
2023-04-29T04:55:26.230Z,9.50
2023-04-29T04:56:26.135Z,10.10
2023-04-29T04:57:26.102Z,9.90
2023-04-29T04:58:26.087Z,9.90
2023-04-29T04:59:26.078Z,9.70
2023-04-29T05:00:26.083Z,10.10
2023-04-29T05:01:26.059Z,10.60
2023-04-29T05:02:26.270Z,10.40
2023-04-29T05:03:26.153Z,10.20
2023-04-29T05:04:26.132Z,10.40
2023-04-29T05:05:26.020Z,10.60
2023-04-29T05:06:25.978Z,10.50
2023-04-29T05:07:25.962Z,11.20
2023-04-29T05:08:25.952Z,10.70
2023-04-29T05:09:25.941Z,10.70
2023-04-29T05:10:25.944Z,10.50
2023-04-29T05:11:25.910Z,11.00
2023-04-29T05:12:25.916Z,10.80
2023-04-29T05:13:25.914Z,10.70
2023-04-29T05:14:25.873Z,11.40
2023-04-29T05:15:25.862Z,11.60
2023-04-29T05:16:25.873Z,11.50
2023-04-29T05:17:25.873Z,11.10
2023-04-29T05:18:25.817Z,11.20
2023-04-29T05:19:25.800Z,10.80
2023-04-29T05:20:25.794Z,10.90
2023-04-29T05:21:25.794Z,11.00
2023-04-29T05:22:25.764Z,11.20
2023-04-29T05:23:25.744Z,11.30
2023-04-29T05:24:25.739Z,11.20
2023-04-29T05:25:25.720Z,11.40
2023-04-29T05:26:25.732Z,11.40
2023-04-29T05:27:25.699Z,11.00
2023-04-29T05:28:27.638Z,11.20
2023-04-29T05:29:25.666Z,11.80
2023-04-29T05:30:25.689Z,11.80
2023-04-29T05:31:25.649Z,11.90
2023-04-29T05:32:25.655Z,12.30
2023-04-29T05:33:25.611Z,11.40
2023-04-29T05:34:25.601Z,12.00
2023-04-29T05:35:25.600Z,11.90
2023-04-29T05:36:25.576Z,12.40
2023-04-29T05:37:25.558Z,11.60
2023-04-29T05:38:25.549Z,11.60
2023-04-29T05:39:25.532Z,12.20
2023-04-29T05:40:25.538Z,12.00
2023-04-29T05:41:25.526Z,12.20
2023-04-29T05:42:25.495Z,12.40
2023-04-29T05:43:25.481Z,11.80
2023-04-29T05:44:25.483Z,12.00
2023-04-29T05:45:25.479Z,10.70
2023-04-29T05:46:26.610Z,11.30
2023-04-29T05:47:25.505Z,10.30
2023-04-29T05:48:25.420Z,11.00
2023-04-29T05:49:25.422Z,10.90
2023-04-29T05:50:25.388Z,10.90
2023-04-29T05:51:25.390Z,10.40
2023-04-29T05:52:25.366Z,10.10
2023-04-29T05:53:25.375Z,10.30
2023-04-29T05:54:25.336Z,10.90
2023-04-29T05:55:25.321Z,10.90
2023-04-29T05:56:25.442Z,11.10
2023-04-29T05:57:25.294Z,11.20
2023-04-29T05:58:25.281Z,11.30
2023-04-29T05:59:25.267Z,11.40
2023-04-29T06:00:25.275Z,10.80
2023-04-29T06:01:25.260Z,11.60
2023-04-29T06:02:25.295Z,10.90
2023-04-29T06:03:25.371Z,10.90
2023-04-29T06:04:25.359Z,11.30
2023-04-29T06:05:25.426Z,11.50
2023-04-29T06:06:25.338Z,11.70
2023-04-29T06:07:25.161Z,11.50
2023-04-29T06:08:25.149Z,11.40
2023-04-29T06:09:27.956Z,11.70
2023-04-29T06:10:25.127Z,11.30
2023-04-29T06:11:25.124Z,11.40
2023-04-29T06:12:25.116Z,11.50
2023-04-29T06:13:25.083Z,11.10
2023-04-29T06:14:25.070Z,12.00
2023-04-29T06:15:25.056Z,11.60
2023-04-29T06:16:25.133Z,11.10
2023-04-29T06:17:25.049Z,10.80
2023-04-29T06:18:25.021Z,11.40
2023-04-29T06:19:25.043Z,12.10
2023-04-29T06:20:24.998Z,11.60
2023-04-29T06:21:24.996Z,11.80
2023-04-29T06:22:24.969Z,10.60
2023-04-29T06:23:24.955Z,10.80
2023-04-29T06:24:24.937Z,10.10
2023-04-29T06:25:24.922Z,11.80
2023-04-29T06:26:24.925Z,11.50
2023-04-29T06:27:24.897Z,10.60
2023-04-29T06:28:24.892Z,10.40
2023-04-29T06:29:24.876Z,10.00
2023-04-29T06:30:24.858Z,9.20
2023-04-29T06:31:24.877Z,9.60
2023-04-29T06:32:24.881Z,9.10
2023-04-29T06:33:24.829Z,9.10
2023-04-29T06:34:24.856Z,8.90
2023-04-29T06:35:24.814Z,8.80
2023-04-29T06:36:24.793Z,9.20
2023-04-29T06:37:24.774Z,9.30
2023-04-29T06:38:24.758Z,8.50
2023-04-29T06:39:24.741Z,11.10
2023-04-29T06:40:24.724Z,11.00
2023-04-29T06:41:24.730Z,9.70
2023-04-29T06:42:24.697Z,9.10
2023-04-29T06:43:24.687Z,8.50
2023-04-29T06:44:24.685Z,8.30
2023-04-29T06:45:25.166Z,8.10
2023-04-29T06:46:24.689Z,8.50
2023-04-29T06:47:24.727Z,7.30
2023-04-29T06:48:24.638Z,7.20
2023-04-29T06:49:24.603Z,7.00
2023-04-29T06:50:24.659Z,6.70
2023-04-29T06:51:24.585Z,6.70
2023-04-29T06:52:24.628Z,6.30
2023-04-29T06:53:24.570Z,6.80
2023-04-29T06:54:24.560Z,6.80
2023-04-29T06:55:24.529Z,6.50
2023-04-29T06:56:24.516Z,6.40
2023-04-29T06:57:24.540Z,6.30
2023-04-29T06:58:24.490Z,6.30
2023-04-29T06:59:24.492Z,6.50
2023-04-29T07:00:24.459Z,6.40
2023-04-29T07:01:24.526Z,6.00
2023-04-29T07:02:24.522Z,5.90
2023-04-29T07:03:24.503Z,6.00
2023-04-29T07:04:24.464Z,5.80
2023-04-29T07:05:24.400Z,5.40
2023-04-29T07:06:24.386Z,5.70
2023-04-29T07:07:24.401Z,5.90
2023-04-29T07:08:24.354Z,5.40
2023-04-29T07:09:24.342Z,5.30
2023-04-29T07:10:24.337Z,5.50
2023-04-29T07:11:24.321Z,5.20
2023-04-29T07:12:24.319Z,5.30
2023-04-29T07:13:24.288Z,5.30
2023-04-29T07:14:24.284Z,5.50
2023-04-29T07:15:24.269Z,5.40
2023-04-29T07:16:24.324Z,5.70
2023-04-29T07:17:24.276Z,5.30
2023-04-29T07:18:24.227Z,5.70
2023-04-29T07:19:24.220Z,5.40
2023-04-29T07:20:24.224Z,5.60
2023-04-29T07:21:24.202Z,5.80
2023-04-29T07:22:24.198Z,5.70
2023-04-29T07:23:24.164Z,5.40
2023-04-29T07:24:24.146Z,5.60
2023-04-29T07:25:24.133Z,5.50
2023-04-29T07:26:24.121Z,5.80
2023-04-29T07:27:24.126Z,5.60
2023-04-29T07:28:24.094Z,5.40
2023-04-29T07:29:24.082Z,5.60
2023-04-29T07:30:24.153Z,5.70
2023-04-29T07:31:24.138Z,6.00
2023-04-29T07:32:24.074Z,5.70
2023-04-29T07:33:24.038Z,5.80
2023-04-29T07:34:24.022Z,5.70
2023-04-29T07:35:24.008Z,6.30
2023-04-29T07:36:24.015Z,6.20
2023-04-29T07:37:23.999Z,6.20
2023-04-29T07:38:23.989Z,5.80
2023-04-29T07:39:23.979Z,5.90
2023-04-29T07:40:23.991Z,6.40
2023-04-29T07:41:23.938Z,6.10
2023-04-29T07:42:23.912Z,6.30
2023-04-29T07:43:23.935Z,6.20
2023-04-29T07:44:23.890Z,6.40
2023-04-29T07:45:23.867Z,8.30
2023-04-29T07:46:23.886Z,6.70
2023-04-29T07:47:23.854Z,9.30
2023-04-29T07:48:23.848Z,17.00
2023-04-29T07:49:23.832Z,8.20
2023-04-29T07:50:23.872Z,14.50
2023-04-29T07:51:23.794Z,14.90
2023-04-29T07:52:23.792Z,9.80
2023-04-29T07:53:23.794Z,7.40
2023-04-29T07:54:23.774Z,7.40
2023-04-29T07:55:23.742Z,8.40
2023-04-29T07:56:23.744Z,6.50
2023-04-29T07:57:23.716Z,6.50
2023-04-29T07:58:23.711Z,9.30
2023-04-29T07:59:23.686Z,12.00
2023-04-29T08:00:23.668Z,10.40
2023-04-29T08:01:23.661Z,7.50
2023-04-29T08:02:23.751Z,6.00
2023-04-29T08:03:23.755Z,5.80
2023-04-29T08:04:23.793Z,5.60
2023-04-29T08:05:23.929Z,6.20
2023-04-29T08:06:23.593Z,7.30
2023-04-29T08:07:23.633Z,21.40
2023-04-29T08:08:23.623Z,21.90
2023-04-29T08:09:23.559Z,16.90
2023-04-29T08:10:23.538Z,15.70
2023-04-29T08:11:23.525Z,16.10
2023-04-29T08:12:23.513Z,7.90
2023-04-29T08:13:23.517Z,5.30
2023-04-29T08:14:23.502Z,5.10
2023-04-29T08:15:23.505Z,4.80
2023-04-29T08:16:23.463Z,4.80
2023-04-29T08:17:23.489Z,4.70
2023-04-29T08:18:23.477Z,4.20
2023-04-29T08:19:23.424Z,4.30
2023-04-29T08:20:23.564Z,3.70
2023-04-29T08:21:23.451Z,3.90
2023-04-29T08:22:23.379Z,3.90
2023-04-29T08:23:23.403Z,4.10
2023-04-29T08:24:23.385Z,4.00
2023-04-29T08:25:23.356Z,3.70
2023-04-29T08:26:24.179Z,3.90
2023-04-29T08:27:23.314Z,3.90
2023-04-29T08:28:23.319Z,4.20
2023-04-29T08:29:23.293Z,4.00
2023-04-29T08:30:23.276Z,3.80
2023-04-29T08:31:23.315Z,4.20
2023-04-29T08:32:23.291Z,4.00
2023-04-29T08:33:23.270Z,4.10
2023-04-29T08:34:23.222Z,4.30
2023-04-29T08:35:23.210Z,4.40
2023-04-29T08:36:23.193Z,4.30
2023-04-29T08:37:23.190Z,4.60
2023-04-29T08:38:23.196Z,4.60
2023-04-29T08:39:23.160Z,4.60
2023-04-29T08:40:23.179Z,4.50
2023-04-29T08:41:23.162Z,4.80
2023-04-29T08:42:23.117Z,5.00
2023-04-29T08:43:23.120Z,8.30
2023-04-29T08:44:23.091Z,14.40
2023-04-29T08:45:23.087Z,19.20
2023-04-29T08:46:23.219Z,11.50
2023-04-29T08:47:23.399Z,6.10
2023-04-29T08:48:23.118Z,5.20
2023-04-29T08:49:23.028Z,5.90
2023-04-29T08:50:23.016Z,5.40
2023-04-29T08:51:23.013Z,5.80
2023-04-29T08:52:22.983Z,6.60
2023-04-29T08:53:23.036Z,7.90
2023-04-29T08:54:22.966Z,6.80
2023-04-29T08:55:22.945Z,8.00
2023-04-29T08:56:22.949Z,7.80
2023-04-29T08:57:22.920Z,6.80
2023-04-29T08:58:22.919Z,5.10
2023-04-29T08:59:22.897Z,7.20
2023-04-29T09:00:22.875Z,8.00
2023-04-29T09:01:23.179Z,7.80
2023-04-29T09:02:22.941Z,6.60
2023-04-29T09:03:22.943Z,7.80
2023-04-29T09:04:22.873Z,6.50
2023-04-29T09:05:22.813Z,5.70
2023-04-29T09:06:22.797Z,5.70
2023-04-29T09:07:22.798Z,5.20
2023-04-29T09:08:22.777Z,5.40
2023-04-29T09:09:22.787Z,5.60
2023-04-29T09:10:22.746Z,5.20
2023-04-29T09:11:22.738Z,5.50
2023-04-29T09:12:22.747Z,5.70
2023-04-29T09:13:22.754Z,5.70
2023-04-29T09:14:22.692Z,5.60
2023-04-29T09:15:22.685Z,5.50
2023-04-29T09:16:22.709Z,5.40
2023-04-29T09:17:22.679Z,5.00
2023-04-29T09:18:22.647Z,5.10
2023-04-29T09:19:22.645Z,5.40
2023-04-29T09:20:22.619Z,5.00
2023-04-29T09:21:23.038Z,5.20
2023-04-29T09:22:22.613Z,5.50
2023-04-29T09:23:22.579Z,5.60
2023-04-29T09:24:22.623Z,5.60
2023-04-29T09:25:22.557Z,5.60
2023-04-29T09:26:22.665Z,5.70
2023-04-29T09:27:22.531Z,5.60
2023-04-29T09:28:22.540Z,5.60
2023-04-29T09:29:22.531Z,5.40
2023-04-29T09:30:22.491Z,5.90
2023-04-29T09:31:22.493Z,5.80
2023-04-29T09:32:22.508Z,6.00
2023-04-29T09:33:22.469Z,5.80
2023-04-29T09:34:22.449Z,5.70
2023-04-29T09:35:22.432Z,5.90
2023-04-29T09:36:22.444Z,5.70
2023-04-29T09:37:22.398Z,5.40
2023-04-29T09:38:22.402Z,5.80
2023-04-29T09:39:22.425Z,5.60
2023-04-29T09:40:22.358Z,6.00
2023-04-29T09:41:22.342Z,5.30
2023-04-29T09:42:22.326Z,6.00
2023-04-29T09:43:22.333Z,5.70
2023-04-29T09:44:22.336Z,5.90
2023-04-29T09:45:22.291Z,5.60
2023-04-29T09:46:22.335Z,5.60
2023-04-29T09:47:22.306Z,5.60
2023-04-29T09:48:22.264Z,6.00
2023-04-29T09:49:22.245Z,5.70
2023-04-29T09:50:22.226Z,5.40
2023-04-29T09:51:22.227Z,5.70
2023-04-29T09:52:22.198Z,5.60
2023-04-29T09:53:22.217Z,5.70
2023-04-29T09:54:22.175Z,5.60
2023-04-29T09:55:22.160Z,5.60
2023-04-29T09:56:22.145Z,5.30
2023-04-29T09:57:22.133Z,5.50
2023-04-29T09:58:22.115Z,5.80
2023-04-29T09:59:22.123Z,5.60
2023-04-29T10:00:22.120Z,5.90
2023-04-29T10:01:22.094Z,5.60
2023-04-29T10:02:22.111Z,5.30
2023-04-29T10:03:22.155Z,5.50
2023-04-29T10:04:22.092Z,5.50
2023-04-29T10:05:22.039Z,5.70
2023-04-29T10:06:22.015Z,5.80
2023-04-29T10:07:22.017Z,5.40
2023-04-29T10:08:21.994Z,5.50
2023-04-29T10:09:22.005Z,4.90
2023-04-29T10:10:21.966Z,4.90
2023-04-29T10:11:21.952Z,4.80
2023-04-29T10:12:21.954Z,5.00
2023-04-29T10:13:21.921Z,5.30
2023-04-29T10:14:21.921Z,5.40
2023-04-29T10:15:21.908Z,4.80
2023-04-29T10:16:21.946Z,4.40
2023-04-29T10:17:21.874Z,4.10
2023-04-29T10:18:21.900Z,4.50
2023-04-29T10:19:21.856Z,3.80
2023-04-29T10:20:21.832Z,4.20
2023-04-29T10:21:21.816Z,3.90
2023-04-29T10:22:21.803Z,3.70
2023-04-29T10:23:21.790Z,4.70
2023-04-29T10:24:21.796Z,4.40
2023-04-29T10:25:21.770Z,4.30
2023-04-29T10:26:21.748Z,3.70
2023-04-29T10:27:22.954Z,3.70
2023-04-29T10:28:21.721Z,3.90
2023-04-29T10:29:21.740Z,3.20
2023-04-29T10:30:21.700Z,3.10
2023-04-29T10:31:21.755Z,3.20
2023-04-29T10:32:21.778Z,3.00
2023-04-29T10:33:21.719Z,3.30
2023-04-29T10:34:21.659Z,3.50
2023-04-29T10:35:21.639Z,3.40
2023-04-29T10:36:21.618Z,3.40
2023-04-29T10:37:21.644Z,3.60
2023-04-29T10:38:21.597Z,3.70
2023-04-29T10:39:21.593Z,3.40
2023-04-29T10:40:21.617Z,3.50
2023-04-29T10:41:21.562Z,3.50
2023-04-29T10:42:21.542Z,3.60
2023-04-29T10:43:21.571Z,4.20
2023-04-29T10:44:21.522Z,3.90
2023-04-29T10:45:21.529Z,3.90
2023-04-29T10:46:21.520Z,3.90
2023-04-29T10:47:21.639Z,3.70
2023-04-29T10:48:21.473Z,3.90
2023-04-29T10:49:22.502Z,4.20
2023-04-29T10:50:21.431Z,3.90
2023-04-29T10:51:21.417Z,3.80
2023-04-29T10:52:21.402Z,3.90
2023-04-29T10:53:21.399Z,3.90
2023-04-29T10:54:21.397Z,3.70
2023-04-29T10:55:21.365Z,3.40
2023-04-29T10:56:21.351Z,3.40
2023-04-29T10:57:21.347Z,3.40
2023-04-29T10:58:21.332Z,3.50
2023-04-29T10:59:21.354Z,3.80
2023-04-29T11:00:21.296Z,3.40
2023-04-29T11:01:21.329Z,3.50
2023-04-29T11:02:21.300Z,13.60
2023-04-29T11:03:21.428Z,8.50
2023-04-29T11:04:21.327Z,4.00
2023-04-29T11:05:21.243Z,3.90
2023-04-29T11:06:21.215Z,3.90
2023-04-29T11:07:21.248Z,4.40
2023-04-29T11:08:21.191Z,4.80
2023-04-29T11:09:21.215Z,5.00
2023-04-29T11:10:21.232Z,5.30
2023-04-29T11:11:21.157Z,5.30
2023-04-29T11:12:21.148Z,5.40
2023-04-29T11:13:21.166Z,4.80
2023-04-29T11:14:21.146Z,5.00
2023-04-29T11:15:21.097Z,5.10
2023-04-29T11:16:21.127Z,5.00
2023-04-29T11:17:21.071Z,5.00
2023-04-29T11:18:21.060Z,5.10
2023-04-29T11:19:21.043Z,5.50
2023-04-29T11:20:21.086Z,5.10
2023-04-29T11:21:21.020Z,5.80
2023-04-29T11:22:21.022Z,5.60
2023-04-29T11:23:20.992Z,5.50
2023-04-29T11:24:20.979Z,5.40
2023-04-29T11:25:21.030Z,4.90
2023-04-29T11:26:20.952Z,4.80
2023-04-29T11:27:20.943Z,4.40
2023-04-29T11:28:20.925Z,4.50
2023-04-29T11:29:20.951Z,4.40
2023-04-29T11:30:20.909Z,4.00
2023-04-29T11:31:20.989Z,4.30
2023-04-29T11:32:20.940Z,4.50
2023-04-29T11:33:20.890Z,4.10
2023-04-29T11:34:20.844Z,4.20
2023-04-29T11:35:20.844Z,4.10
2023-04-29T11:36:20.840Z,3.80
2023-04-29T11:37:20.822Z,4.20
2023-04-29T11:38:20.788Z,3.50
2023-04-29T11:39:20.780Z,3.20
2023-04-29T11:40:20.776Z,3.30
2023-04-29T11:41:20.770Z,3.50
2023-04-29T11:42:20.741Z,3.80
2023-04-29T11:43:20.729Z,3.70
2023-04-29T11:44:20.730Z,3.70
2023-04-29T11:45:20.748Z,3.60
2023-04-29T11:46:20.703Z,3.70
2023-04-29T11:47:20.709Z,3.80
2023-04-29T11:48:20.670Z,3.40
2023-04-29T11:49:20.653Z,3.30
2023-04-29T11:50:21.039Z,2.80
2023-04-29T11:51:20.625Z,3.10
2023-04-29T11:52:20.625Z,3.10
2023-04-29T11:53:20.589Z,3.40
2023-04-29T11:54:20.613Z,3.70
2023-04-29T11:55:20.599Z,4.10
2023-04-29T11:56:20.574Z,3.70
2023-04-29T11:57:20.534Z,4.00
2023-04-29T11:58:20.528Z,4.20
2023-04-29T11:59:20.523Z,3.90
2023-04-29T12:00:20.511Z,3.60
2023-04-29T12:01:20.483Z,3.20
2023-04-29T12:02:20.613Z,3.00
2023-04-29T12:03:20.596Z,2.70
2023-04-29T12:04:20.618Z,2.70
2023-04-29T12:05:20.614Z,2.60
2023-04-29T12:06:20.413Z,2.70
2023-04-29T12:07:20.408Z,2.60
2023-04-29T12:08:20.407Z,2.70
2023-04-29T12:09:20.382Z,2.50
2023-04-29T12:10:20.376Z,2.50
2023-04-29T12:11:20.370Z,2.50
2023-04-29T12:12:20.353Z,2.40
2023-04-29T12:13:20.320Z,3.50
2023-04-29T12:14:20.324Z,9.10
2023-04-29T12:15:20.327Z,5.90
2023-04-29T12:16:20.306Z,3.40
2023-04-29T12:17:20.271Z,3.20
2023-04-29T12:18:20.267Z,2.80
2023-04-29T12:19:20.237Z,2.60
2023-04-29T12:20:20.240Z,2.90
2023-04-29T12:21:20.217Z,2.70
2023-04-29T12:22:20.208Z,2.60
2023-04-29T12:23:20.191Z,2.70
2023-04-29T12:24:20.194Z,2.80
2023-04-29T12:25:20.177Z,3.10
2023-04-29T12:26:20.148Z,2.90
2023-04-29T12:27:20.146Z,2.50
2023-04-29T12:28:20.117Z,2.60
2023-04-29T12:29:20.102Z,2.70
2023-04-29T12:30:20.109Z,2.20
2023-04-29T12:31:20.097Z,2.40
2023-04-29T12:32:20.061Z,2.40
2023-04-29T12:33:20.051Z,2.40
2023-04-29T12:34:20.057Z,2.70
2023-04-29T12:35:20.056Z,2.60
2023-04-29T12:36:20.017Z,2.60
2023-04-29T12:37:19.997Z,2.80
2023-04-29T12:38:19.983Z,3.70
2023-04-29T12:39:19.967Z,9.70
2023-04-29T12:40:20.023Z,5.10
2023-04-29T12:41:19.949Z,3.70
2023-04-29T12:42:19.962Z,10.10
2023-04-29T12:43:19.913Z,7.40
2023-04-29T12:44:19.933Z,5.50
2023-04-29T12:45:19.911Z,5.00
2023-04-29T12:46:19.934Z,4.20
2023-04-29T12:47:19.894Z,2.80
2023-04-29T12:48:29.721Z,2.50
2023-04-29T12:49:19.840Z,3.60
2023-04-29T12:50:19.825Z,2.60
2023-04-29T12:51:19.824Z,3.90
2023-04-29T12:52:19.794Z,3.20
2023-04-29T12:53:19.791Z,2.20
2023-04-29T12:54:19.777Z,2.80
2023-04-29T12:55:19.757Z,2.30
2023-04-29T12:56:20.282Z,2.20
2023-04-29T12:57:19.731Z,2.10
2023-04-29T12:58:19.713Z,2.00
2023-04-29T12:59:19.713Z,1.80
2023-04-29T13:00:19.916Z,1.90
2023-04-29T13:01:19.694Z,1.60
2023-04-29T13:02:19.724Z,1.70
2023-04-29T13:03:22.168Z,1.80
2023-04-29T13:04:19.788Z,1.50
2023-04-29T13:05:19.620Z,1.50
2023-04-29T13:06:19.623Z,1.60
2023-04-29T13:07:19.599Z,1.70
2023-04-29T13:08:19.590Z,1.70
2023-04-29T13:09:19.571Z,1.80
2023-04-29T13:10:19.562Z,1.70
2023-04-29T13:11:20.101Z,1.30
2023-04-29T13:12:19.549Z,1.90
2023-04-29T13:13:19.723Z,1.40
2023-04-29T13:14:19.498Z,1.60